sensor_id;sensor_type;location;lat;lon;timestamp;temperature;humidity
76897;SHT30;65856;52.178;21.176;2023-07-09T00:01:15;18.83;60.30
76897;SHT30;65856;52.178;21.176;2023-07-09T00:03:44;18.82;60.44
76897;SHT30;65856;52.178;21.176;2023-07-09T00:06:13;18.80;60.51
76897;SHT30;65856;52.178;21.176;2023-07-09T00:08:40;18.81;60.58
76897;SHT30;65856;52.178;21.176;2023-07-09T00:11:11;18.80;60.41
76897;SHT30;65856;52.178;21.176;2023-07-09T00:13:37;18.78;60.46
76897;SHT30;65856;52.178;21.176;2023-07-09T00:16:06;18.75;60.29
76897;SHT30;65856;52.178;21.176;2023-07-09T00:18:44;18.75;60.03
76897;SHT30;65856;52.178;21.176;2023-07-09T00:21:09;18.73;60.21
76897;SHT30;65856;52.178;21.176;2023-07-09T00:23:35;18.71;60.65
76897;SHT30;65856;52.178;21.176;2023-07-09T00:26:04;18.69;60.66
76897;SHT30;65856;52.178;21.176;2023-07-09T00:28:41;18.68;60.73
76897;SHT30;65856;52.178;21.176;2023-07-09T00:31:11;18.68;60.81
76897;SHT30;65856;52.178;21.176;2023-07-09T00:33:42;18.64;60.75
76897;SHT30;65856;52.178;21.176;2023-07-09T00:36:15;18.59;60.79
76897;SHT30;65856;52.178;21.176;2023-07-09T00:39:03;18.56;61.10
76897;SHT30;65856;52.178;21.176;2023-07-09T00:41:32;18.56;61.23
76897;SHT30;65856;52.178;21.176;2023-07-09T00:49:26;18.48;61.35
76897;SHT30;65856;52.178;21.176;2023-07-09T00:52:01;18.45;61.37
76897;SHT30;65856;52.178;21.176;2023-07-09T00:54:49;18.44;61.56
76897;SHT30;65856;52.178;21.176;2023-07-09T00:57:18;18.42;61.49
76897;SHT30;65856;52.178;21.176;2023-07-09T00:59:52;18.40;61.41
76897;SHT30;65856;52.178;21.176;2023-07-09T01:02:32;18.39;61.41
76897;SHT30;65856;52.178;21.176;2023-07-09T01:04:59;18.36;61.39
76897;SHT30;65856;52.178;21.176;2023-07-09T01:07:28;18.33;61.44
76897;SHT30;65856;52.178;21.176;2023-07-09T01:09:55;18.27;61.58
76897;SHT30;65856;52.178;21.176;2023-07-09T01:12:20;18.21;61.71
76897;SHT30;65856;52.178;21.176;2023-07-09T01:14:49;18.18;61.87
76897;SHT30;65856;52.178;21.176;2023-07-09T01:17:18;18.15;61.92
76897;SHT30;65856;52.178;21.176;2023-07-09T01:19:49;18.15;62.08
76897;SHT30;65856;52.178;21.176;2023-07-09T01:22:17;18.11;62.08
76897;SHT30;65856;52.178;21.176;2023-07-09T01:24:47;18.09;62.13
76897;SHT30;65856;52.178;21.176;2023-07-09T01:27:28;18.05;62.19
76897;SHT30;65856;52.178;21.176;2023-07-09T01:30:11;18.03;62.20
76897;SHT30;65856;52.178;21.176;2023-07-09T01:32:41;17.99;62.29
76897;SHT30;65856;52.178;21.176;2023-07-09T01:35:11;17.98;62.31
76897;SHT30;65856;52.178;21.176;2023-07-09T01:37:40;17.99;62.48
76897;SHT30;65856;52.178;21.176;2023-07-09T01:40:08;17.98;62.49
76897;SHT30;65856;52.178;21.176;2023-07-09T01:42:39;17.95;62.52
76897;SHT30;65856;52.178;21.176;2023-07-09T01:45:06;17.92;62.61
76897;SHT30;65856;52.178;21.176;2023-07-09T01:47:35;17.93;62.55
76897;SHT30;65856;52.178;21.176;2023-07-09T01:50:03;17.91;62.59
76897;SHT30;65856;52.178;21.176;2023-07-09T01:52:31;17.92;62.60
76897;SHT30;65856;52.178;21.176;2023-07-09T01:54:59;17.90;62.41
76897;SHT30;65856;52.178;21.176;2023-07-09T01:57:26;17.87;62.55
76897;SHT30;65856;52.178;21.176;2023-07-09T02:00:01;17.83;62.71
76897;SHT30;65856;52.178;21.176;2023-07-09T02:02:36;17.81;62.77
76897;SHT30;65856;52.178;21.176;2023-07-09T02:05:09;17.79;62.93
76897;SHT30;65856;52.178;21.176;2023-07-09T02:07:38;17.76;62.95
76897;SHT30;65856;52.178;21.176;2023-07-09T02:10:04;17.71;63.00
76897;SHT30;65856;52.178;21.176;2023-07-09T02:12:31;17.71;63.10
76897;SHT30;65856;52.178;21.176;2023-07-09T02:14:57;17.70;63.17
76897;SHT30;65856;52.178;21.176;2023-07-09T02:17:22;17.67;63.24
76897;SHT30;65856;52.178;21.176;2023-07-09T02:19:48;17.67;63.28
76897;SHT30;65856;52.178;21.176;2023-07-09T02:22:13;17.68;63.33
76897;SHT30;65856;52.178;21.176;2023-07-09T02:24:39;17.66;63.43
76897;SHT30;65856;52.178;21.176;2023-07-09T02:27:05;17.67;63.52
76897;SHT30;65856;52.178;21.176;2023-07-09T02:29:35;17.67;63.61
76897;SHT30;65856;52.178;21.176;2023-07-09T02:32:03;17.67;63.57
76897;SHT30;65856;52.178;21.176;2023-07-09T02:34:29;17.65;63.73
76897;SHT30;65856;52.178;21.176;2023-07-09T02:36:56;17.63;63.65
76897;SHT30;65856;52.178;21.176;2023-07-09T02:39:24;17.59;63.68
76897;SHT30;65856;52.178;21.176;2023-07-09T02:41:50;17.57;63.76
76897;SHT30;65856;52.178;21.176;2023-07-09T02:44:16;17.57;63.78
76897;SHT30;65856;52.178;21.176;2023-07-09T02:46:43;17.53;63.80
76897;SHT30;65856;52.178;21.176;2023-07-09T02:49:10;17.55;63.75
76897;SHT30;65856;52.178;21.176;2023-07-09T02:51:39;17.55;63.84
76897;SHT30;65856;52.178;21.176;2023-07-09T02:54:05;17.52;63.94
76897;SHT30;65856;52.178;21.176;2023-07-09T02:56:31;17.55;63.97
76897;SHT30;65856;52.178;21.176;2023-07-09T02:58:58;17.54;64.00
76897;SHT30;65856;52.178;21.176;2023-07-09T03:01:24;17.53;64.16
76897;SHT30;65856;52.178;21.176;2023-07-09T03:03:52;17.52;64.24
76897;SHT30;65856;52.178;21.176;2023-07-09T03:06:21;17.53;64.39
76897;SHT30;65856;52.178;21.176;2023-07-09T03:08:49;17.54;64.41
76897;SHT30;65856;52.178;21.176;2023-07-09T03:11:15;17.52;64.47
76897;SHT30;65856;52.178;21.176;2023-07-09T03:13:41;17.55;64.55
76897;SHT30;65856;52.178;21.176;2023-07-09T03:16:07;17.58;64.65
76897;SHT30;65856;52.178;21.176;2023-07-09T03:18:33;17.64;64.70
76897;SHT30;65856;52.178;21.176;2023-07-09T03:20:59;17.68;64.76
76897;SHT30;65856;52.178;21.176;2023-07-09T03:23:25;17.73;64.80
76897;SHT30;65856;52.178;21.176;2023-07-09T03:25:51;17.78;64.69
76897;SHT30;65856;52.178;21.176;2023-07-09T03:28:17;17.87;64.76
76897;SHT30;65856;52.178;21.176;2023-07-09T03:30:44;18.15;64.29
76897;SHT30;65856;52.178;21.176;2023-07-09T03:33:13;18.70;63.36
76897;SHT30;65856;52.178;21.176;2023-07-09T03:35:41;19.03;62.76
76897;SHT30;65856;52.178;21.176;2023-07-09T03:38:08;19.23;62.12
76897;SHT30;65856;52.178;21.176;2023-07-09T03:40:36;19.50;61.65
76897;SHT30;65856;52.178;21.176;2023-07-09T03:43:06;19.82;60.94
76897;SHT30;65856;52.178;21.176;2023-07-09T03:45:34;20.18;60.30
76897;SHT30;65856;52.178;21.176;2023-07-09T03:48:03;21.07;58.75
76897;SHT30;65856;52.178;21.176;2023-07-09T03:50:30;22.02;56.71
76897;SHT30;65856;52.178;21.176;2023-07-09T03:52:56;22.83;54.83
76897;SHT30;65856;52.178;21.176;2023-07-09T03:55:22;23.41;53.60
76897;SHT30;65856;52.178;21.176;2023-07-09T03:57:51;23.65;52.97
76897;SHT30;65856;52.178;21.176;2023-07-09T04:00:19;23.56;52.67
76897;SHT30;65856;52.178;21.176;2023-07-09T04:02:46;23.30;52.83
76897;SHT30;65856;52.178;21.176;2023-07-09T04:05:12;23.13;52.87
76897;SHT30;65856;52.178;21.176;2023-07-09T04:07:38;23.01;52.66
76897;SHT30;65856;52.178;21.176;2023-07-09T04:10:04;22.96;52.64
76897;SHT30;65856;52.178;21.176;2023-07-09T04:12:31;22.92;52.49
76897;SHT30;65856;52.178;21.176;2023-07-09T04:14:57;22.90;52.36
76897;SHT30;65856;52.178;21.176;2023-07-09T04:17:23;22.91;52.42
76897;SHT30;65856;52.178;21.176;2023-07-09T04:19:49;22.90;52.28
76897;SHT30;65856;52.178;21.176;2023-07-09T04:22:16;22.89;52.08
76897;SHT30;65856;52.178;21.176;2023-07-09T04:24:42;22.89;52.07
76897;SHT30;65856;52.178;21.176;2023-07-09T04:27:09;22.93;51.98
76897;SHT30;65856;52.178;21.176;2023-07-09T04:29:34;22.97;52.05
76897;SHT30;65856;52.178;21.176;2023-07-09T04:32:34;23.01;51.96
76897;SHT30;65856;52.178;21.176;2023-07-09T04:34:52;23.06;51.84
76897;SHT30;65856;52.178;21.176;2023-07-09T04:37:18;23.10;51.68
76897;SHT30;65856;52.178;21.176;2023-07-09T04:39:44;23.17;51.39
76897;SHT30;65856;52.178;21.176;2023-07-09T04:42:14;23.25;51.37
76897;SHT30;65856;52.178;21.176;2023-07-09T04:44:44;23.32;51.01
76897;SHT30;65856;52.178;21.176;2023-07-09T04:47:10;23.40;50.77
76897;SHT30;65856;52.178;21.176;2023-07-09T04:49:37;23.55;50.89
76897;SHT30;65856;52.178;21.176;2023-07-09T04:52:03;23.65;50.53
76897;SHT30;65856;52.178;21.176;2023-07-09T04:54:30;23.77;50.26
76897;SHT30;65856;52.178;21.176;2023-07-09T04:56:56;23.91;49.86
76897;SHT30;65856;52.178;21.176;2023-07-09T04:59:22;24.05;49.69
76897;SHT30;65856;52.178;21.176;2023-07-09T05:01:48;24.17;49.51
76897;SHT30;65856;52.178;21.176;2023-07-09T05:04:15;24.29;49.28
76897;SHT30;65856;52.178;21.176;2023-07-09T05:06:41;24.44;48.76
76897;SHT30;65856;52.178;21.176;2023-07-09T05:09:07;24.56;48.47
76897;SHT30;65856;52.178;21.176;2023-07-09T05:11:34;24.65;48.32
76897;SHT30;65856;52.178;21.176;2023-07-09T05:14:01;24.78;47.83
76897;SHT30;65856;52.178;21.176;2023-07-09T05:16:28;24.95;47.25
76897;SHT30;65856;52.178;21.176;2023-07-09T05:18:54;25.04;46.85
76897;SHT30;65856;52.178;21.176;2023-07-09T05:21:20;25.09;46.87
76897;SHT30;65856;52.178;21.176;2023-07-09T05:23:45;25.19;46.46
76897;SHT30;65856;52.178;21.176;2023-07-09T05:26:11;25.33;46.48
76897;SHT30;65856;52.178;21.176;2023-07-09T05:28:36;25.48;46.46
76897;SHT30;65856;52.178;21.176;2023-07-09T05:31:03;25.68;46.11
76897;SHT30;65856;52.178;21.176;2023-07-09T05:33:32;25.76;45.96
76897;SHT30;65856;52.178;21.176;2023-07-09T05:35:57;25.87;45.68
76897;SHT30;65856;52.178;21.176;2023-07-09T05:38:23;25.94;45.50
76897;SHT30;65856;52.178;21.176;2023-07-09T05:40:48;25.99;45.17
76897;SHT30;65856;52.178;21.176;2023-07-09T05:43:26;26.08;44.77
76897;SHT30;65856;52.178;21.176;2023-07-09T05:45:51;26.16;44.66
76897;SHT30;65856;52.178;21.176;2023-07-09T05:48:17;26.22;44.57
76897;SHT30;65856;52.178;21.176;2023-07-09T05:50:42;26.32;44.11
76897;SHT30;65856;52.178;21.176;2023-07-09T05:53:08;26.30;43.82
76897;SHT30;65856;52.178;21.176;2023-07-09T05:55:34;26.31;43.67
76897;SHT30;65856;52.178;21.176;2023-07-09T05:57:59;26.37;43.57
76897;SHT30;65856;52.178;21.176;2023-07-09T06:00:25;26.47;43.36
76897;SHT30;65856;52.178;21.176;2023-07-09T06:02:50;26.54;42.92
76897;SHT30;65856;52.178;21.176;2023-07-09T06:05:17;26.54;42.82
76897;SHT30;65856;52.178;21.176;2023-07-09T06:07:42;26.57;42.55
76897;SHT30;65856;52.178;21.176;2023-07-09T06:10:08;26.69;42.61
76897;SHT30;65856;52.178;21.176;2023-07-09T06:12:34;26.84;42.14
76897;SHT30;65856;52.178;21.176;2023-07-09T06:15:01;26.91;42.23
76897;SHT30;65856;52.178;21.176;2023-07-09T06:17:27;26.91;42.26
76897;SHT30;65856;52.178;21.176;2023-07-09T06:19:52;26.92;42.13
76897;SHT30;65856;52.178;21.176;2023-07-09T06:22:18;26.97;42.20
76897;SHT30;65856;52.178;21.176;2023-07-09T06:24:44;27.03;42.26
76897;SHT30;65856;52.178;21.176;2023-07-09T06:27:11;27.14;42.22
76897;SHT30;65856;52.178;21.176;2023-07-09T06:29:36;27.26;42.05
76897;SHT30;65856;52.178;21.176;2023-07-09T06:32:02;27.32;41.89
76897;SHT30;65856;52.178;21.176;2023-07-09T06:34:29;27.46;41.99
76897;SHT30;65856;52.178;21.176;2023-07-09T06:36:55;27.66;41.76
76897;SHT30;65856;52.178;21.176;2023-07-09T06:39:22;27.80;41.46
76897;SHT30;65856;52.178;21.176;2023-07-09T06:41:48;27.91;41.28
76897;SHT30;65856;52.178;21.176;2023-07-09T06:44:13;28.00;40.79
76897;SHT30;65856;52.178;21.176;2023-07-09T06:46:39;28.07;40.60
76897;SHT30;65856;52.178;21.176;2023-07-09T06:49:05;28.10;40.66
76897;SHT30;65856;52.178;21.176;2023-07-09T06:51:31;28.16;40.52
76897;SHT30;65856;52.178;21.176;2023-07-09T06:53:58;28.21;40.52
76897;SHT30;65856;52.178;21.176;2023-07-09T06:56:23;28.31;40.53
76897;SHT30;65856;52.178;21.176;2023-07-09T06:58:49;28.44;39.97
76897;SHT30;65856;52.178;21.176;2023-07-09T07:01:15;28.50;39.75
76897;SHT30;65856;52.178;21.176;2023-07-09T07:03:40;28.55;39.71
76897;SHT30;65856;52.178;21.176;2023-07-09T07:06:06;28.69;39.64
76897;SHT30;65856;52.178;21.176;2023-07-09T07:08:32;28.80;39.41
76897;SHT30;65856;52.178;21.176;2023-07-09T07:10:59;28.78;39.52
76897;SHT30;65856;52.178;21.176;2023-07-09T07:13:31;28.86;39.57
76897;SHT30;65856;52.178;21.176;2023-07-09T07:16:04;28.99;39.08
76897;SHT30;65856;52.178;21.176;2023-07-09T07:18:34;29.03;38.93
76897;SHT30;65856;52.178;21.176;2023-07-09T07:21:01;29.16;38.52
76897;SHT30;65856;52.178;21.176;2023-07-09T07:23:28;29.35;38.41
76897;SHT30;65856;52.178;21.176;2023-07-09T07:25:54;29.49;38.27
76897;SHT30;65856;52.178;21.176;2023-07-09T07:28:20;29.61;38.22
76897;SHT30;65856;52.178;21.176;2023-07-09T07:30:46;29.78;37.99
76897;SHT30;65856;52.178;21.176;2023-07-09T07:33:13;29.95;37.67
76897;SHT30;65856;52.178;21.176;2023-07-09T07:35:41;29.98;36.84
76897;SHT30;65856;52.178;21.176;2023-07-09T07:38:06;29.93;36.90
76897;SHT30;65856;52.178;21.176;2023-07-09T07:40:32;29.99;36.90
76897;SHT30;65856;52.178;21.176;2023-07-09T07:42:57;30.12;36.75
76897;SHT30;65856;52.178;21.176;2023-07-09T07:45:23;30.21;36.32
76897;SHT30;65856;52.178;21.176;2023-07-09T07:47:49;30.23;36.08
76897;SHT30;65856;52.178;21.176;2023-07-09T07:50:16;30.34;35.66
76897;SHT30;65856;52.178;21.176;2023-07-09T07:52:41;30.30;35.92
76897;SHT30;65856;52.178;21.176;2023-07-09T07:55:07;30.37;35.76
76897;SHT30;65856;52.178;21.176;2023-07-09T07:57:34;30.53;35.45
76897;SHT30;65856;52.178;21.176;2023-07-09T08:00:00;30.71;35.15
76897;SHT30;65856;52.178;21.176;2023-07-09T08:02:25;30.83;34.99
76897;SHT30;65856;52.178;21.176;2023-07-09T08:04:51;30.87;35.31
76897;SHT30;65856;52.178;21.176;2023-07-09T08:07:18;30.99;35.04
76897;SHT30;65856;52.178;21.176;2023-07-09T08:09:45;31.02;34.97
76897;SHT30;65856;52.178;21.176;2023-07-09T08:12:12;31.13;34.84
76897;SHT30;65856;52.178;21.176;2023-07-09T08:14:40;31.28;34.53
76897;SHT30;65856;52.178;21.176;2023-07-09T08:17:10;31.30;34.04
76897;SHT30;65856;52.178;21.176;2023-07-09T08:19:45;31.39;33.83
76897;SHT30;65856;52.178;21.176;2023-07-09T08:22:20;31.57;33.68
76897;SHT30;65856;52.178;21.176;2023-07-09T08:24:47;31.76;33.49
76897;SHT30;65856;52.178;21.176;2023-07-09T08:27:14;31.97;32.92
76897;SHT30;65856;52.178;21.176;2023-07-09T08:29:40;32.12;32.38
76897;SHT30;65856;52.178;21.176;2023-07-09T08:32:07;32.25;31.83
76897;SHT30;65856;52.178;21.176;2023-07-09T08:34:35;32.24;31.58
76897;SHT30;65856;52.178;21.176;2023-07-09T08:37:01;32.28;31.61
76897;SHT30;65856;52.178;21.176;2023-07-09T08:39:27;32.31;31.19
76897;SHT30;65856;52.178;21.176;2023-07-09T08:47:53;32.39;30.80
76897;SHT30;65856;52.178;21.176;2023-07-09T08:50:38;32.57;30.81
76897;SHT30;65856;52.178;21.176;2023-07-09T08:53:16;32.48;30.63
76897;SHT30;65856;52.178;21.176;2023-07-09T08:55:52;32.43;30.60
76897;SHT30;65856;52.178;21.176;2023-07-09T08:58:20;32.63;30.67
76897;SHT30;65856;52.178;21.176;2023-07-09T09:00:57;32.79;29.92
76897;SHT30;65856;52.178;21.176;2023-07-09T09:03:45;32.93;29.73
76897;SHT30;65856;52.178;21.176;2023-07-09T09:06:22;33.07;29.76
76897;SHT30;65856;52.178;21.176;2023-07-09T09:14:48;32.90;29.42
76897;SHT30;65856;52.178;21.176;2023-07-09T09:17:27;32.87;29.26
76897;SHT30;65856;52.178;21.176;2023-07-09T09:19:59;32.92;29.51
76897;SHT30;65856;52.178;21.176;2023-07-09T09:22:33;33.02;29.93
76897;SHT30;65856;52.178;21.176;2023-07-09T09:25:27;33.17;29.61
76897;SHT30;65856;52.178;21.176;2023-07-09T09:27:58;33.26;29.42
76897;SHT30;65856;52.178;21.176;2023-07-09T09:30:26;33.33;28.80
76897;SHT30;65856;52.178;21.176;2023-07-09T09:32:53;33.44;28.29
76897;SHT30;65856;52.178;21.176;2023-07-09T09:35:28;33.53;28.36
76897;SHT30;65856;52.178;21.176;2023-07-09T09:38:11;33.57;28.15
76897;SHT30;65856;52.178;21.176;2023-07-09T09:40:44;33.39;27.92
76897;SHT30;65856;52.178;21.176;2023-07-09T09:43:17;33.29;28.34
76897;SHT30;65856;52.178;21.176;2023-07-09T09:45:47;33.31;28.11
76897;SHT30;65856;52.178;21.176;2023-07-09T09:48:33;33.16;27.38
76897;SHT30;65856;52.178;21.176;2023-07-09T09:51:03;32.92;27.29
76897;SHT30;65856;52.178;21.176;2023-07-09T09:53:34;32.82;27.66
76897;SHT30;65856;52.178;21.176;2023-07-09T09:56:13;32.82;27.38
76897;SHT30;65856;52.178;21.176;2023-07-09T09:58:44;32.81;27.26
76897;SHT30;65856;52.178;21.176;2023-07-09T10:01:14;32.83;27.58
76897;SHT30;65856;52.178;21.176;2023-07-09T10:03:43;32.84;27.55
76897;SHT30;65856;52.178;21.176;2023-07-09T10:06:20;32.81;27.39
76897;SHT30;65856;52.178;21.176;2023-07-09T10:09:02;32.83;27.18
76897;SHT30;65856;52.178;21.176;2023-07-09T10:12:10;32.88;27.48
76897;SHT30;65856;52.178;21.176;2023-07-09T10:18:14;32.88;27.08
76897;SHT30;65856;52.178;21.176;2023-07-09T10:21:11;33.00;27.27
76897;SHT30;65856;52.178;21.176;2023-07-09T10:26:46;32.97;27.59
76897;SHT30;65856;52.178;21.176;2023-07-09T10:35:24;32.86;27.52
76897;SHT30;65856;52.178;21.176;2023-07-09T10:38:14;32.84;27.67
76897;SHT30;65856;52.178;21.176;2023-07-09T10:41:14;32.83;28.00
76897;SHT30;65856;52.178;21.176;2023-07-09T10:43:45;32.81;28.04
76897;SHT30;65856;52.178;21.176;2023-07-09T10:46:23;32.86;28.20
76897;SHT30;65856;52.178;21.176;2023-07-09T10:48:55;32.77;28.17
76897;SHT30;65856;52.178;21.176;2023-07-09T10:54:32;32.76;28.16
76897;SHT30;65856;52.178;21.176;2023-07-09T10:57:13;32.79;28.49
76897;SHT30;65856;52.178;21.176;2023-07-09T11:00:11;32.86;28.47
76897;SHT30;65856;52.178;21.176;2023-07-09T11:02:43;32.85;28.39
76897;SHT30;65856;52.178;21.176;2023-07-09T11:05:10;32.80;27.81
76897;SHT30;65856;52.178;21.176;2023-07-09T11:07:43;32.59;27.99
76897;SHT30;65856;52.178;21.176;2023-07-09T11:10:31;32.59;27.92
76897;SHT30;65856;52.178;21.176;2023-07-09T11:13:11;32.63;28.12
76897;SHT30;65856;52.178;21.176;2023-07-09T11:15:45;32.58;27.98
76897;SHT30;65856;52.178;21.176;2023-07-09T11:18:18;32.52;27.78
76897;SHT30;65856;52.178;21.176;2023-07-09T11:20:55;32.47;28.09
76897;SHT30;65856;52.178;21.176;2023-07-09T11:23:49;32.42;27.86
76897;SHT30;65856;52.178;21.176;2023-07-09T11:26:24;32.38;27.80
76897;SHT30;65856;52.178;21.176;2023-07-09T11:31:34;32.30;27.95
76897;SHT30;65856;52.178;21.176;2023-07-09T11:34:15;32.27;27.82
76897;SHT30;65856;52.178;21.176;2023-07-09T11:37:08;32.26;27.91
76897;SHT30;65856;52.178;21.176;2023-07-09T11:42:03;32.24;27.70
76897;SHT30;65856;52.178;21.176;2023-07-09T11:44:49;32.25;27.86
76897;SHT30;65856;52.178;21.176;2023-07-09T11:47:27;32.27;27.67
76897;SHT30;65856;52.178;21.176;2023-07-09T11:50:05;32.19;27.54
76897;SHT30;65856;52.178;21.176;2023-07-09T11:56:09;32.00;27.12
76897;SHT30;65856;52.178;21.176;2023-07-09T11:58:35;31.95;27.22
76897;SHT30;65856;52.178;21.176;2023-07-09T12:01:01;31.90;27.00
76897;SHT30;65856;52.178;21.176;2023-07-09T12:03:39;31.75;26.59
76897;SHT30;65856;52.178;21.176;2023-07-09T12:06:19;31.69;26.86
76897;SHT30;65856;52.178;21.176;2023-07-09T12:08:51;31.68;26.99
76897;SHT30;65856;52.178;21.176;2023-07-09T12:13:51;31.68;27.57
76897;SHT30;65856;52.178;21.176;2023-07-09T12:16:29;31.73;27.49
76897;SHT30;65856;52.178;21.176;2023-07-09T12:19:10;31.73;27.40
76897;SHT30;65856;52.178;21.176;2023-07-09T12:21:39;31.73;27.28
76897;SHT30;65856;52.178;21.176;2023-07-09T12:27:33;31.71;27.26
76897;SHT30;65856;52.178;21.176;2023-07-09T12:29:53;31.62;27.39
76897;SHT30;65856;52.178;21.176;2023-07-09T12:32:22;31.52;27.51
76897;SHT30;65856;52.178;21.176;2023-07-09T12:34:51;31.42;27.62
76897;SHT30;65856;52.178;21.176;2023-07-09T12:37:20;31.39;27.57
76897;SHT30;65856;52.178;21.176;2023-07-09T12:39:49;31.38;27.49
76897;SHT30;65856;52.178;21.176;2023-07-09T12:42:19;31.33;27.59
76897;SHT30;65856;52.178;21.176;2023-07-09T12:44:55;31.29;27.72
76897;SHT30;65856;52.178;21.176;2023-07-09T12:47:21;31.28;27.74
76897;SHT30;65856;52.178;21.176;2023-07-09T12:49:50;31.18;27.73
76897;SHT30;65856;52.178;21.176;2023-07-09T12:52:20;31.17;28.03
76897;SHT30;65856;52.178;21.176;2023-07-09T12:54:56;31.19;28.41
76897;SHT30;65856;52.178;21.176;2023-07-09T12:57:28;31.19;28.58
76897;SHT30;65856;52.178;21.176;2023-07-09T12:59:55;31.26;28.80
76897;SHT30;65856;52.178;21.176;2023-07-09T13:05:03;31.21;28.76
76897;SHT30;65856;52.178;21.176;2023-07-09T13:07:46;31.16;28.86
76897;SHT30;65856;52.178;21.176;2023-07-09T13:10:29;31.12;28.99
76897;SHT30;65856;52.178;21.176;2023-07-09T13:13:05;31.07;28.96
76897;SHT30;65856;52.178;21.176;2023-07-09T13:18:09;30.99;29.06
76897;SHT30;65856;52.178;21.176;2023-07-09T13:20:38;30.94;29.27
76897;SHT30;65856;52.178;21.176;2023-07-09T13:23:08;30.90;29.04
76897;SHT30;65856;52.178;21.176;2023-07-09T13:25:53;30.92;29.01
76897;SHT30;65856;52.178;21.176;2023-07-09T13:28:24;30.93;29.30
76897;SHT30;65856;52.178;21.176;2023-07-09T13:30:59;30.88;29.18
76897;SHT30;65856;52.178;21.176;2023-07-09T13:33:34;30.78;28.63
76897;SHT30;65856;52.178;21.176;2023-07-09T13:36:01;30.71;28.39
76897;SHT30;65856;52.178;21.176;2023-07-09T13:38:28;30.69;28.28
76897;SHT30;65856;52.178;21.176;2023-07-09T13:40:55;30.69;28.49
76897;SHT30;65856;52.178;21.176;2023-07-09T13:43:30;30.68;28.24
76897;SHT30;65856;52.178;21.176;2023-07-09T13:46:01;30.63;28.48
76897;SHT30;65856;52.178;21.176;2023-07-09T13:48:31;30.64;28.74
76897;SHT30;65856;52.178;21.176;2023-07-09T13:51:00;30.63;28.66
76897;SHT30;65856;52.178;21.176;2023-07-09T13:53:28;30.60;28.44
76897;SHT30;65856;52.178;21.176;2023-07-09T13:55:56;30.57;28.52
76897;SHT30;65856;52.178;21.176;2023-07-09T13:58:23;30.56;28.44
76897;SHT30;65856;52.178;21.176;2023-07-09T14:00:54;30.48;28.52
76897;SHT30;65856;52.178;21.176;2023-07-09T14:03:29;30.41;28.94
76897;SHT30;65856;52.178;21.176;2023-07-09T14:05:59;30.37;29.07
76897;SHT30;65856;52.178;21.176;2023-07-09T14:08:24;30.34;29.14
76897;SHT30;65856;52.178;21.176;2023-07-09T14:10:50;30.32;28.83
76897;SHT30;65856;52.178;21.176;2023-07-09T14:13:16;30.23;28.71
76897;SHT30;65856;52.178;21.176;2023-07-09T14:15:47;30.18;28.94
76897;SHT30;65856;52.178;21.176;2023-07-09T14:18:13;30.16;29.10
76897;SHT30;65856;52.178;21.176;2023-07-09T14:20:44;30.16;28.86
76897;SHT30;65856;52.178;21.176;2023-07-09T14:23:13;30.16;28.82
76897;SHT30;65856;52.178;21.176;2023-07-09T14:25:43;30.17;28.98
76897;SHT30;65856;52.178;21.176;2023-07-09T14:28:15;30.14;29.10
76897;SHT30;65856;52.178;21.176;2023-07-09T14:30:45;30.07;29.18
76897;SHT30;65856;52.178;21.176;2023-07-09T14:33:16;30.02;29.47
76897;SHT30;65856;52.178;21.176;2023-07-09T14:35:45;29.99;29.54
76897;SHT30;65856;52.178;21.176;2023-07-09T14:40:51;29.96;30.09
76897;SHT30;65856;52.178;21.176;2023-07-09T14:43:20;29.98;30.05
76897;SHT30;65856;52.178;21.176;2023-07-09T14:45:47;29.97;29.85
76897;SHT30;65856;52.178;21.176;2023-07-09T14:48:19;29.94;29.95
76897;SHT30;65856;52.178;21.176;2023-07-09T14:50:46;29.94;30.03
76897;SHT30;65856;52.178;21.176;2023-07-09T14:53:20;29.91;30.02
76897;SHT30;65856;52.178;21.176;2023-07-09T14:55:51;29.85;30.00
76897;SHT30;65856;52.178;21.176;2023-07-09T14:58:20;29.80;30.13
76897;SHT30;65856;52.178;21.176;2023-07-09T15:00:48;29.77;30.25
76897;SHT30;65856;52.178;21.176;2023-07-09T15:03:18;29.77;30.53
76897;SHT30;65856;52.178;21.176;2023-07-09T15:05:50;29.75;30.19
76897;SHT30;65856;52.178;21.176;2023-07-09T15:08:24;29.74;30.19
76897;SHT30;65856;52.178;21.176;2023-07-09T15:10:51;29.70;30.15
76897;SHT30;65856;52.178;21.176;2023-07-09T15:15:58;29.64;29.98
76897;SHT30;65856;52.178;21.176;2023-07-09T15:18:25;29.63;30.18
76897;SHT30;65856;52.178;21.176;2023-07-09T15:20:53;29.60;30.22
76897;SHT30;65856;52.178;21.176;2023-07-09T15:23:23;29.58;30.25
76897;SHT30;65856;52.178;21.176;2023-07-09T15:25:50;29.59;30.35
76897;SHT30;65856;52.178;21.176;2023-07-09T15:28:16;29.58;30.47
76897;SHT30;65856;52.178;21.176;2023-07-09T15:30:43;29.60;30.61
76897;SHT30;65856;52.178;21.176;2023-07-09T15:33:13;29.60;30.27
76897;SHT30;65856;52.178;21.176;2023-07-09T15:35:43;29.56;29.89
76897;SHT30;65856;52.178;21.176;2023-07-09T15:38:16;29.54;30.16
76897;SHT30;65856;52.178;21.176;2023-07-09T15:40:54;29.54;30.64
76897;SHT30;65856;52.178;21.176;2023-07-09T15:43:22;29.54;30.58
76897;SHT30;65856;52.178;21.176;2023-07-09T15:45:49;29.53;30.49
76897;SHT30;65856;52.178;21.176;2023-07-09T15:48:20;29.54;30.80
76897;SHT30;65856;52.178;21.176;2023-07-09T15:50:51;29.51;30.74
76897;SHT30;65856;52.178;21.176;2023-07-09T15:53:17;29.50;30.93
76897;SHT30;65856;52.178;21.176;2023-07-09T15:55:45;29.47;30.72
76897;SHT30;65856;52.178;21.176;2023-07-09T15:58:23;29.45;30.86
76897;SHT30;65856;52.178;21.176;2023-07-09T16:00:54;29.44;31.13
76897;SHT30;65856;52.178;21.176;2023-07-09T16:03:20;29.45;30.71
76897;SHT30;65856;52.178;21.176;2023-07-09T16:05:47;29.39;30.41
76897;SHT30;65856;52.178;21.176;2023-07-09T16:08:13;29.35;30.53
76897;SHT30;65856;52.178;21.176;2023-07-09T16:10:38;29.32;30.36
76897;SHT30;65856;52.178;21.176;2023-07-09T16:13:04;29.26;30.44
76897;SHT30;65856;52.178;21.176;2023-07-09T16:15:43;29.20;30.57
76897;SHT30;65856;52.178;21.176;2023-07-09T16:18:09;29.17;30.77
76897;SHT30;65856;52.178;21.176;2023-07-09T16:20:36;29.17;30.87
76897;SHT30;65856;52.178;21.176;2023-07-09T16:23:02;29.16;31.26
76897;SHT30;65856;52.178;21.176;2023-07-09T16:25:34;29.17;31.27
76897;SHT30;65856;52.178;21.176;2023-07-09T16:28:01;29.14;31.22
76897;SHT30;65856;52.178;21.176;2023-07-09T16:30:28;29.08;31.48